GUCYGAKY

Guest
Details From GUCY - CONAKRY
To GAKY - KAYES DAG DAG
Flight Number -
Tags generated
Created
Modified
Stats Distance 339 nm / 628 km
Max Altitude 35,000 ft / 10,668 m
Waypoints 6
Social Downloads 0
Likes 0
Share VATSIM

Download

Looking for another format? Having issues loading an existing format? Contact us
Advertisement - Login to hide

Notes

Basic altitude profile: - Ascent Rate: 2500ft/min - Ascent Speed: 250kts - Cruise Altitude: 35000ft - Cruise Speed: 420kts - Descent Rate: 1500ft/min - Descent Speed: 250kts Options: - Use NATs: yes - Use PACOTS: yes - Use low airways: yes - Use high airways: yes

Route

GUCY PIMSO UR72 BUMBI UM372 DEMOL GAKY

ID Type Via Altitude Latitude Longitude Leg Dist Tot Dist Heading (true) Name
O GUCY APT - 0 ft / 0 m 9.57690˚ -13.61188˚ - 0 nm - CONAKRY
PIMSO FIX - 15,000 ft / 4,572 m 10.25000˚ -13.41667˚ 42 nm 42 nm 16° / 16° -
NASLO FIX UR72 (AWY-HI) 35,000 ft / 10,668 m 11.78333˚ -13.15000˚ 93 nm 135 nm 10° / 10° -
BUMBI FIX UR72 (AWY-HI) 33,500 ft / 10,211 m 12.46667˚ -12.96667˚ 42 nm 177 nm 15° / 15° -
DEMOL FIX UM372 (AWY-HI) 23,500 ft / 7,163 m 13.54250˚ -12.71778˚ 66 nm 244 nm 13° / 13° -
O GAKY APT - 0 ft / 0 m 14.48123˚ -11.40440˚ 95 nm 339 nm 53° / 54° KAYES DAG DAG

Altitude Profile

Advertisement - Login to hide

Weather


0- 5 10 15 20 25 30 35+ Temperature / ° C

Clouds and Precipitation
Forecast for 2018-05-21 12:00 UTC. Updated 27 minutes ago

Ground ~20,000 ft ~40,000 ft Winds

GUCY

Details ICAO GUCY (CKY)
Name CONAKRY
Region Guinea
Timezone Africa/Conakry (UTC+0.0)
Stats Elevation 72 ft / 22 m (AMSL)
Location 9.576897° -13.611879°
Runways 1
Magnetic Variation 6.957° W

METAR

GUCY 210900Z 36006KT 9999 FEW015 29/19 Q1012 NOSIG

Decode

TAF

TAF GUCY 210500Z 2106/2212 26006KT 9999 FEW015 SCT110 TEMPO 2106/2109 6000 -RA SCT013 BKN110 BECMG 2115/2118 24008KT FEW023CB PROB30 TEMPO 2118/2122 12010KT 4000 -TSRA SCT012 FEW023CB BKN100

Decode

Departure Runways

ID Width Length Bearing (true) Bearing (mag) Surface Threshold Offset Overrun Length
06 148 ft / 45 m 10,836 ft / 3,303 m 49.26° 56.22° Asphalt 0 ft / 0 m 197 ft / 60 m
24 148 ft / 45 m 10,836 ft / 3,303 m 229.27° 236.23° Asphalt 0 ft / 0 m 197 ft / 60 m

GAKY

Details ICAO GAKY (KYS)
Name KAYES DAG DAG
Region Mali
Timezone Africa/Bamako (UTC+0.0)
Stats Elevation 164 ft / 50 m (AMSL)
Location 14.481234° -11.404398°
Runways 1
Magnetic Variation 4.933° W

METAR

GAKY 210900Z 26013KT CAVOK 34/08 Q1010

Decode

TAF

Not found

Destination Runways

ID Width Length Bearing (true) Bearing (mag) Surface Threshold Offset Overrun Length
09 98 ft / 30 m 5,262 ft / 1,604 m 80.98° 85.91° Asphalt 0 ft / 0 m 0 ft / 0 m
27 98 ft / 30 m 5,262 ft / 1,604 m 260.98° 265.91° Asphalt 0 ft / 0 m 0 ft / 0 m